createdAt,value
2017-12-19T00:00:28.465Z,19.50
2017-12-19T00:01:04.052Z,18.33
2017-12-19T00:01:36.687Z,17.83
2017-12-19T00:02:09.252Z,17.95
2017-12-19T00:02:42.708Z,18.35
2017-12-19T00:03:15.303Z,18.65
2017-12-19T00:03:47.968Z,18.98
2017-12-19T00:04:20.685Z,19.48
2017-12-19T00:04:53.301Z,19.50
2017-12-19T00:05:25.889Z,18.52
2017-12-19T00:05:58.408Z,19.10
2017-12-19T00:06:31.244Z,18.12
2017-12-19T00:07:05.408Z,20.55
2017-12-19T00:07:38.024Z,18.40
2017-12-19T00:08:10.626Z,19.60
2017-12-19T00:08:43.293Z,18.95
2017-12-19T00:09:16.018Z,19.48
2017-12-19T00:09:48.739Z,18.58
2017-12-19T00:10:25.798Z,19.40
2017-12-19T00:10:58.362Z,17.42
2017-12-19T00:11:30.924Z,20.50
2017-12-19T00:12:03.499Z,18.40
2017-12-19T00:12:36.316Z,18.02
2017-12-19T00:13:08.978Z,20.25
2017-12-19T00:13:41.758Z,20.62
2017-12-19T00:14:14.302Z,20.95
2017-12-19T00:14:47.629Z,18.00
2017-12-19T00:15:20.202Z,20.30
2017-12-19T00:15:53.557Z,18.75
2017-12-19T00:16:26.291Z,19.30
2017-12-19T00:16:59.631Z,18.52
2017-12-19T00:17:32.661Z,19.45
2017-12-19T00:18:05.476Z,20.08
2017-12-19T00:18:38.214Z,19.12
2017-12-19T00:19:14.190Z,19.58
2017-12-19T00:19:48.293Z,19.90
2017-12-19T00:20:21.307Z,21.37
2017-12-19T00:20:54.816Z,19.17
2017-12-19T00:21:28.374Z,20.95
2017-12-19T00:22:01.710Z,20.25
2017-12-19T00:22:40.293Z,18.92
2017-12-19T00:23:12.884Z,19.55
2017-12-19T00:23:45.573Z,19.35
2017-12-19T00:24:18.136Z,19.90
2017-12-19T00:24:50.831Z,20.73
2017-12-19T00:25:23.614Z,18.87
2017-12-19T00:25:56.171Z,19.73
2017-12-19T00:26:28.779Z,19.70
2017-12-19T00:27:02.116Z,19.42
2017-12-19T00:27:35.513Z,18.83
2017-12-19T00:28:08.082Z,20.45
2017-12-19T00:28:40.777Z,18.42
2017-12-19T00:29:13.486Z,19.92
2017-12-19T00:29:46.107Z,18.65
2017-12-19T00:30:18.926Z,20.35
2017-12-19T00:30:52.332Z,20.90
2017-12-19T00:31:25.009Z,20.83
2017-12-19T00:31:57.678Z,21.50
2017-12-19T00:32:30.451Z,20.48
2017-12-19T00:33:03.398Z,21.35
2017-12-19T00:33:36.904Z,19.17
2017-12-19T00:34:09.479Z,21.42
2017-12-19T00:34:42.023Z,21.15
2017-12-19T00:35:14.648Z,21.40
2017-12-19T00:35:47.217Z,20.12
2017-12-19T00:36:19.866Z,19.87
2017-12-19T00:36:53.368Z,19.30
2017-12-19T00:37:26.278Z,20.50
2017-12-19T00:37:59.324Z,19.67
2017-12-19T00:38:32.189Z,20.10
2017-12-19T00:39:05.502Z,19.73
2017-12-19T00:39:38.445Z,20.10
2017-12-19T00:40:11.010Z,21.12
2017-12-19T00:40:44.385Z,18.10
2017-12-19T00:41:17.288Z,19.37
2017-12-19T00:41:50.064Z,20.45
2017-12-19T00:42:22.845Z,20.40
2017-12-19T00:42:55.453Z,19.80
2017-12-19T00:43:28.130Z,20.52
2017-12-19T00:44:01.409Z,19.87
2017-12-19T00:44:34.183Z,21.35
2017-12-19T00:45:06.803Z,19.05
2017-12-19T00:45:39.650Z,20.20
2017-12-19T00:46:12.365Z,20.50
2017-12-19T00:46:44.994Z,20.45
2017-12-19T00:47:18.463Z,20.30
2017-12-19T00:47:51.219Z,19.85
2017-12-19T00:48:25.467Z,19.92
2017-12-19T00:48:58.921Z,21.70
2017-12-19T00:49:31.526Z,19.87
2017-12-19T00:50:04.125Z,20.15
2017-12-19T00:50:38.070Z,19.80
2017-12-19T00:51:10.822Z,21.17
2017-12-19T00:51:43.377Z,18.70
2017-12-19T00:52:15.951Z,20.45
2017-12-19T00:52:49.629Z,20.70
2017-12-19T00:53:22.270Z,21.08
2017-12-19T00:53:55.454Z,19.48
2017-12-19T00:54:27.975Z,20.12
2017-12-19T00:55:00.701Z,21.35
2017-12-19T00:55:33.569Z,20.90
2017-12-19T00:56:06.256Z,18.95
2017-12-19T00:56:38.882Z,20.77
2017-12-19T00:57:12.646Z,20.02
2017-12-19T00:57:46.108Z,19.25
2017-12-19T00:58:18.873Z,19.30
2017-12-19T00:58:51.819Z,21.00
2017-12-19T00:59:24.555Z,19.92
2017-12-19T00:59:57.351Z,21.05
2017-12-19T01:00:30.632Z,21.42
2017-12-19T01:01:03.310Z,19.85
2017-12-19T01:01:36.786Z,19.75
2017-12-19T01:02:10.167Z,22.40
2017-12-19T01:02:43.683Z,19.70
2017-12-19T01:03:18.478Z,20.55
2017-12-19T01:03:51.034Z,20.30
2017-12-19T01:04:23.843Z,20.40
2017-12-19T01:04:56.545Z,20.27
2017-12-19T01:05:29.342Z,21.52
2017-12-19T01:06:02.101Z,20.25
2017-12-19T01:06:35.207Z,20.25
2017-12-19T01:07:07.748Z,20.17
2017-12-19T01:07:41.133Z,20.52
2017-12-19T01:08:13.796Z,19.65
2017-12-19T01:08:47.379Z,20.30
2017-12-19T01:09:20.701Z,20.67
2017-12-19T01:09:54.889Z,21.15
2017-12-19T01:10:27.532Z,21.05
2017-12-19T01:11:00.486Z,19.48
2017-12-19T01:11:33.145Z,22.90
2017-12-19T01:12:05.784Z,18.95
2017-12-19T01:12:38.361Z,19.80
2017-12-19T01:13:11.006Z,20.02
2017-12-19T01:13:43.606Z,20.42
2017-12-19T01:14:16.133Z,19.45
2017-12-19T01:14:48.812Z,20.70
2017-12-19T01:15:21.452Z,21.40
2017-12-19T01:15:54.186Z,22.23
2017-12-19T01:16:26.887Z,22.00
2017-12-19T01:16:59.627Z,21.15
2017-12-19T01:17:32.293Z,21.62
2017-12-19T01:18:05.093Z,21.70
2017-12-19T01:18:37.736Z,22.40
2017-12-19T01:19:11.183Z,21.70
2017-12-19T01:19:43.719Z,22.05
2017-12-19T01:20:17.463Z,20.62
2017-12-19T01:20:50.059Z,21.10
2017-12-19T01:21:22.850Z,20.62
2017-12-19T01:21:55.402Z,21.58
2017-12-19T01:22:28.260Z,21.00
2017-12-19T01:23:01.007Z,20.35
2017-12-19T01:23:33.665Z,20.67
2017-12-19T01:24:06.362Z,20.67
2017-12-19T01:24:38.947Z,19.50
2017-12-19T01:25:11.950Z,21.42
2017-12-19T01:25:44.577Z,19.98
2017-12-19T01:26:17.300Z,20.58
2017-12-19T01:26:49.902Z,21.80
2017-12-19T01:27:22.683Z,20.77
2017-12-19T01:27:58.070Z,20.20
2017-12-19T01:28:31.740Z,20.27
2017-12-19T01:29:04.850Z,22.45
2017-12-19T01:29:38.242Z,21.60
2017-12-19T01:30:11.616Z,21.98
2017-12-19T01:30:44.867Z,21.45
2017-12-19T01:31:17.778Z,20.12
2017-12-19T01:31:51.137Z,20.70
2017-12-19T01:32:23.724Z,21.15
2017-12-19T01:32:56.405Z,21.87
2017-12-19T01:33:29.171Z,20.60
2017-12-19T01:34:01.789Z,23.08
2017-12-19T01:34:34.565Z,20.58
2017-12-19T01:35:07.235Z,21.87
2017-12-19T01:35:39.837Z,21.83
2017-12-19T01:36:12.614Z,21.75
2017-12-19T01:36:45.212Z,20.80
2017-12-19T01:37:18.056Z,21.60
2017-12-19T01:37:50.658Z,20.95
2017-12-19T01:38:24.078Z,21.20
2017-12-19T01:38:56.743Z,21.37
2017-12-19T01:39:30.150Z,21.62
2017-12-19T01:40:02.692Z,21.25
2017-12-19T01:40:35.267Z,22.10
2017-12-19T01:41:07.987Z,21.00
2017-12-19T01:41:40.654Z,21.00
2017-12-19T01:42:13.354Z,22.23
2017-12-19T01:42:48.034Z,21.42
2017-12-19T01:43:20.589Z,22.50
2017-12-19T01:43:53.282Z,22.05
2017-12-19T01:44:25.822Z,21.48
2017-12-19T01:44:58.582Z,21.15
2017-12-19T01:45:31.398Z,20.75
2017-12-19T01:46:05.141Z,20.50
2017-12-19T01:46:39.453Z,22.05
2017-12-19T01:47:12.163Z,22.62
2017-12-19T01:47:44.793Z,22.33
2017-12-19T01:48:17.561Z,21.15
2017-12-19T01:48:50.272Z,21.58
2017-12-19T01:49:23.689Z,21.52
2017-12-19T01:49:56.258Z,20.30
2017-12-19T01:50:28.993Z,20.12
2017-12-19T01:51:01.606Z,22.20
2017-12-19T01:51:34.255Z,22.00
2017-12-19T01:52:06.822Z,20.05
2017-12-19T01:52:39.389Z,22.50
2017-12-19T01:53:12.102Z,21.95
2017-12-19T01:53:44.720Z,22.62
2017-12-19T01:54:17.435Z,21.42
2017-12-19T01:54:50.814Z,22.90
2017-12-19T01:55:23.578Z,22.25
2017-12-19T01:55:56.209Z,22.15
2017-12-19T01:56:29.531Z,21.80
2017-12-19T01:57:02.142Z,22.00
2017-12-19T01:57:34.803Z,21.00
2017-12-19T01:58:07.397Z,22.85
2017-12-19T01:58:40.720Z,20.98
2017-12-19T01:59:14.072Z,21.23
2017-12-19T01:59:47.146Z,20.58
2017-12-19T02:00:19.886Z,21.00
2017-12-19T02:00:52.435Z,21.77
2017-12-19T02:01:25.148Z,20.80
2017-12-19T02:01:57.710Z,21.95
2017-12-19T02:02:30.283Z,20.95
2017-12-19T02:03:02.804Z,20.45
2017-12-19T02:03:35.378Z,23.50
2017-12-19T02:04:08.595Z,21.50
2017-12-19T02:04:41.440Z,21.35
2017-12-19T02:05:14.158Z,20.92
2017-12-19T02:05:46.780Z,22.55
2017-12-19T02:06:19.323Z,22.50
2017-12-19T02:06:51.885Z,20.30
2017-12-19T02:07:24.498Z,22.42
2017-12-19T02:07:57.065Z,21.52
2017-12-19T02:08:29.618Z,21.70
2017-12-19T02:09:02.239Z,20.33
2017-12-19T02:09:34.827Z,21.15
2017-12-19T02:10:07.566Z,21.52
2017-12-19T02:10:40.239Z,21.50
2017-12-19T02:11:16.326Z,21.20
2017-12-19T02:11:49.051Z,21.17
2017-12-19T02:12:21.753Z,20.20
2017-12-19T02:12:54.314Z,20.80
2017-12-19T02:13:26.863Z,21.20
2017-12-19T02:14:01.044Z,22.45
2017-12-19T02:14:33.762Z,21.40
2017-12-19T02:15:06.482Z,21.40
2017-12-19T02:15:39.214Z,21.27
2017-12-19T02:16:12.712Z,21.87
2017-12-19T02:16:45.330Z,20.67
2017-12-19T02:17:17.965Z,21.95
2017-12-19T02:17:51.238Z,21.50
2017-12-19T02:18:24.059Z,21.05
2017-12-19T02:18:56.665Z,22.60
2017-12-19T02:19:29.324Z,20.67
2017-12-19T02:20:02.047Z,20.77
2017-12-19T02:20:34.862Z,21.55
2017-12-19T02:21:07.495Z,20.90
2017-12-19T02:21:40.135Z,22.70
2017-12-19T02:22:12.709Z,23.40
2017-12-19T02:22:45.359Z,23.87
2017-12-19T02:23:18.030Z,22.70
2017-12-19T02:23:50.602Z,22.48
2017-12-19T02:24:23.311Z,23.20
2017-12-19T02:24:55.885Z,21.42
2017-12-19T02:25:29.307Z,22.10
2017-12-19T02:26:01.942Z,22.58
2017-12-19T02:26:34.587Z,21.98
2017-12-19T02:27:07.408Z,22.50
2017-12-19T02:27:40.086Z,21.85
2017-12-19T02:28:12.756Z,21.83
2017-12-19T02:28:45.358Z,21.85
2017-12-19T02:29:18.095Z,21.55
2017-12-19T02:29:50.757Z,20.75
2017-12-19T02:30:23.415Z,21.77
2017-12-19T02:30:56.026Z,22.10
2017-12-19T02:31:28.683Z,21.85
2017-12-19T02:32:01.467Z,22.17
2017-12-19T02:32:34.055Z,20.92
2017-12-19T02:33:06.642Z,21.90
2017-12-19T02:33:39.194Z,22.85
2017-12-19T02:34:11.918Z,22.15
2017-12-19T02:34:44.640Z,22.05
2017-12-19T02:35:17.313Z,22.90
2017-12-19T02:35:49.860Z,21.70
2017-12-19T02:36:23.703Z,21.55
2017-12-19T02:36:56.267Z,22.00
2017-12-19T02:37:28.882Z,20.92
2017-12-19T02:38:01.425Z,22.50
2017-12-19T02:38:34.098Z,23.80
2017-12-19T02:39:06.727Z,22.10
2017-12-19T02:39:39.425Z,21.75
2017-12-19T02:40:12.528Z,23.05
2017-12-19T02:40:45.129Z,20.60
2017-12-19T02:41:17.672Z,21.20
2017-12-19T02:41:50.309Z,22.92
2017-12-19T02:42:22.837Z,22.23
2017-12-19T02:43:07.282Z,22.13
2017-12-19T02:43:39.804Z,20.75
2017-12-19T02:44:12.490Z,21.23
2017-12-19T02:44:45.004Z,21.83
2017-12-19T02:45:17.615Z,21.10
2017-12-19T02:45:52.696Z,22.50
2017-12-19T02:46:25.638Z,21.95
2017-12-19T02:46:58.191Z,22.48
2017-12-19T02:47:30.805Z,20.75
2017-12-19T02:48:03.357Z,22.70
2017-12-19T02:48:35.919Z,21.95
2017-12-19T02:49:08.437Z,22.27
2017-12-19T02:49:41.094Z,21.17
2017-12-19T02:50:13.714Z,20.83
2017-12-19T02:50:46.528Z,21.40
2017-12-19T02:51:19.159Z,21.48
2017-12-19T02:51:51.717Z,21.30
2017-12-19T02:52:24.279Z,22.58
2017-12-19T02:52:56.842Z,20.92
2017-12-19T02:53:29.481Z,21.20
2017-12-19T02:54:02.067Z,22.20
2017-12-19T02:54:34.722Z,22.20
2017-12-19T02:55:07.327Z,22.62
2017-12-19T02:55:39.865Z,23.80
2017-12-19T02:56:12.465Z,22.37
2017-12-19T02:56:45.309Z,22.25
2017-12-19T02:57:18.024Z,23.17
2017-12-19T02:57:50.583Z,23.50
2017-12-19T02:58:23.232Z,23.02
2017-12-19T02:58:57.029Z,23.33
2017-12-19T02:59:29.662Z,22.62
2017-12-19T03:00:02.213Z,21.58
2017-12-19T03:00:34.739Z,22.67
2017-12-19T03:01:07.300Z,21.30
2017-12-19T03:01:39.822Z,23.12
2017-12-19T03:02:12.426Z,23.95
2017-12-19T03:02:44.985Z,23.40
2017-12-19T03:03:17.595Z,23.85
2017-12-19T03:03:50.382Z,22.67
2017-12-19T03:04:22.935Z,22.70
2017-12-19T03:04:55.520Z,22.55
2017-12-19T03:05:28.117Z,23.80
2017-12-19T03:06:00.826Z,22.65
2017-12-19T03:06:34.284Z,22.30
2017-12-19T03:07:06.886Z,22.48
2017-12-19T03:07:39.623Z,22.40
2017-12-19T03:08:12.226Z,21.35
2017-12-19T03:08:44.764Z,21.52
2017-12-19T03:09:17.338Z,23.33
2017-12-19T03:09:51.234Z,22.10
2017-12-19T03:10:24.606Z,22.55
2017-12-19T03:10:57.158Z,21.95
2017-12-19T03:11:29.859Z,22.52
2017-12-19T03:12:02.500Z,23.15
2017-12-19T03:12:35.014Z,21.90
2017-12-19T03:13:07.582Z,23.80
2017-12-19T03:13:40.110Z,23.85
2017-12-19T03:14:12.696Z,23.55
2017-12-19T03:14:45.325Z,22.40
2017-12-19T03:15:18.024Z,22.73
2017-12-19T03:15:50.621Z,23.30
2017-12-19T03:16:23.128Z,24.00
2017-12-19T03:16:56.409Z,22.50
2017-12-19T03:17:29.816Z,23.62
2017-12-19T03:18:02.560Z,23.55
2017-12-19T03:18:35.123Z,23.87
2017-12-19T03:19:07.659Z,22.60
2017-12-19T03:19:40.182Z,22.17
2017-12-19T03:20:12.830Z,24.27
2017-12-19T03:20:45.397Z,23.52
2017-12-19T03:21:18.003Z,24.95
2017-12-19T03:21:50.590Z,24.20
2017-12-19T03:22:23.131Z,23.27
2017-12-19T03:22:55.652Z,22.55
2017-12-19T03:23:28.266Z,23.42
2017-12-19T03:24:00.830Z,22.42
2017-12-19T03:24:33.394Z,23.75
2017-12-19T03:25:05.975Z,23.10
2017-12-19T03:25:38.517Z,23.50
2017-12-19T03:26:11.120Z,21.75
2017-12-19T03:26:43.701Z,22.70
2017-12-19T03:27:16.238Z,21.27
2017-12-19T03:27:48.897Z,25.37
2017-12-19T03:28:21.508Z,22.40
2017-12-19T03:28:54.094Z,23.55
2017-12-19T03:29:26.617Z,24.23
2017-12-19T03:29:59.133Z,23.83
2017-12-19T03:30:31.651Z,22.85
2017-12-19T03:31:04.182Z,22.60
2017-12-19T03:31:36.876Z,22.77
2017-12-19T03:32:09.603Z,22.75
2017-12-19T03:32:42.135Z,23.50
2017-12-19T03:33:14.880Z,23.50
2017-12-19T03:33:47.537Z,22.65
2017-12-19T03:34:20.074Z,23.80
2017-12-19T03:34:52.651Z,21.62
2017-12-19T03:35:25.355Z,23.33
2017-12-19T03:35:57.943Z,23.25
2017-12-19T03:36:30.542Z,22.50
2017-12-19T03:37:03.835Z,21.85
2017-12-19T03:37:36.401Z,24.20
2017-12-19T03:38:09.102Z,24.65
2017-12-19T03:38:41.605Z,22.50
2017-12-19T03:39:14.241Z,23.65
2017-12-19T03:39:46.968Z,24.02
2017-12-19T03:40:20.295Z,22.00
2017-12-19T03:40:52.817Z,23.52
2017-12-19T03:41:25.371Z,23.75
2017-12-19T03:41:57.983Z,22.70
2017-12-19T03:42:31.422Z,23.02
2017-12-19T03:43:04.745Z,23.33
2017-12-19T03:43:37.398Z,21.85
2017-12-19T03:44:10.025Z,22.67
2017-12-19T03:44:42.571Z,23.00
2017-12-19T03:45:15.135Z,22.30
2017-12-19T03:45:47.643Z,22.87
2017-12-19T03:46:20.293Z,21.48
2017-12-19T03:46:53.630Z,22.75
2017-12-19T03:47:26.164Z,23.38
2017-12-19T03:47:58.711Z,24.12
2017-12-19T03:48:31.459Z,23.87
2017-12-19T03:49:04.122Z,24.27
2017-12-19T03:49:37.429Z,22.62
2017-12-19T03:50:10.067Z,23.90
2017-12-19T03:50:42.606Z,24.05
2017-12-19T03:51:15.964Z,23.10
2017-12-19T03:51:48.549Z,22.58
2017-12-19T03:52:31.012Z,23.17
2017-12-19T03:53:03.639Z,22.52
2017-12-19T03:53:36.228Z,23.48
2017-12-19T03:54:08.774Z,23.05
2017-12-19T03:54:41.322Z,22.70
2017-12-19T03:55:13.873Z,22.83
2017-12-19T03:55:46.484Z,22.55
2017-12-19T03:56:19.075Z,24.20
2017-12-19T03:56:51.698Z,23.08
2017-12-19T03:57:25.044Z,23.98
2017-12-19T03:57:57.636Z,22.60
2017-12-19T03:58:30.639Z,23.87
2017-12-19T03:59:03.325Z,24.02
2017-12-19T03:59:35.850Z,24.02
2017-12-19T04:00:08.368Z,22.95
2017-12-19T04:00:41.760Z,22.48
2017-12-19T04:01:14.422Z,22.83
2017-12-19T04:01:47.018Z,21.92
2017-12-19T04:02:19.554Z,23.80
2017-12-19T04:02:52.112Z,24.50
2017-12-19T04:03:25.069Z,24.60
2017-12-19T04:03:57.686Z,23.00
2017-12-19T04:04:30.320Z,23.05
2017-12-19T04:05:03.672Z,23.00
2017-12-19T04:05:36.279Z,21.27
2017-12-19T04:06:08.869Z,23.50
2017-12-19T04:06:41.587Z,22.92
2017-12-19T04:07:14.273Z,23.77
2017-12-19T04:07:46.846Z,23.73
2017-12-19T04:08:19.468Z,22.98
2017-12-19T04:08:52.092Z,22.45
2017-12-19T04:09:24.694Z,23.38
2017-12-19T04:09:57.354Z,23.05
2017-12-19T04:10:30.590Z,22.48
2017-12-19T04:11:03.271Z,22.23
2017-12-19T04:11:35.814Z,23.08
2017-12-19T04:12:08.358Z,23.25
2017-12-19T04:12:40.991Z,22.95
2017-12-19T04:13:13.610Z,21.65
2017-12-19T04:13:46.383Z,23.55
2017-12-19T04:14:19.123Z,23.87
2017-12-19T04:14:51.676Z,21.35
2017-12-19T04:15:24.253Z,21.77
2017-12-19T04:15:57.069Z,23.15
2017-12-19T04:16:29.687Z,21.92
2017-12-19T04:17:02.215Z,21.80
2017-12-19T04:17:34.786Z,23.35
2017-12-19T04:18:07.423Z,23.33
2017-12-19T04:18:40.262Z,23.73
2017-12-19T04:19:12.892Z,23.58
2017-12-19T04:19:46.737Z,23.50
2017-12-19T04:20:19.282Z,21.83
2017-12-19T04:20:52.182Z,23.27
2017-12-19T04:21:24.725Z,25.08
2017-12-19T04:21:57.322Z,23.58
2017-12-19T04:22:30.662Z,23.48
2017-12-19T04:23:03.253Z,23.30
2017-12-19T04:23:35.811Z,22.17
2017-12-19T04:24:08.732Z,22.70
2017-12-19T04:24:41.273Z,23.00
2017-12-19T04:25:13.917Z,21.30
2017-12-19T04:25:47.586Z,21.52
2017-12-19T04:26:20.453Z,22.85
2017-12-19T04:26:53.015Z,22.40
2017-12-19T04:27:26.519Z,24.15
2017-12-19T04:27:59.199Z,21.83
2017-12-19T04:28:36.497Z,22.58
2017-12-19T04:29:09.193Z,23.12
2017-12-19T04:29:42.053Z,22.95
2017-12-19T04:30:16.975Z,22.00
2017-12-19T04:30:50.209Z,22.05
2017-12-19T04:31:23.091Z,21.45
2017-12-19T04:31:55.694Z,20.95
2017-12-19T04:32:28.565Z,21.23
2017-12-19T04:33:01.226Z,23.65
2017-12-19T04:33:33.891Z,22.65
2017-12-19T04:34:06.435Z,22.45
2017-12-19T04:34:39.432Z,21.55
2017-12-19T04:35:12.429Z,22.23
2017-12-19T04:35:50.370Z,22.70
2017-12-19T04:36:23.164Z,20.98
2017-12-19T04:36:55.780Z,22.25
2017-12-19T04:37:29.697Z,23.67
2017-12-19T04:38:03.060Z,23.77
2017-12-19T04:38:37.751Z,24.12
2017-12-19T04:39:10.322Z,23.08
2017-12-19T04:39:43.006Z,24.77
2017-12-19T04:40:16.111Z,23.23
2017-12-19T04:40:50.039Z,23.02
2017-12-19T04:41:26.942Z,23.17
2017-12-19T04:42:00.083Z,21.45
2017-12-19T04:42:36.234Z,22.02
2017-12-19T04:43:11.812Z,23.00
2017-12-19T04:43:44.613Z,23.10
2017-12-19T04:44:18.449Z,23.25
2017-12-19T04:44:53.830Z,21.40
2017-12-19T04:45:29.207Z,22.60
2017-12-19T04:46:02.156Z,22.70
2017-12-19T04:46:38.957Z,24.08
2017-12-19T04:47:12.453Z,22.05
2017-12-19T04:47:45.056Z,22.58
2017-12-19T04:48:19.858Z,23.33
2017-12-19T04:48:54.081Z,21.45
2017-12-19T04:49:26.712Z,23.12
2017-12-19T04:50:02.152Z,22.25
2017-12-19T04:50:35.582Z,22.05
2017-12-19T04:51:09.116Z,22.75
2017-12-19T04:51:41.710Z,20.50
2017-12-19T04:52:14.353Z,21.92
2017-12-19T04:52:47.135Z,21.45
2017-12-19T04:53:19.680Z,21.80
2017-12-19T04:53:52.247Z,24.10
2017-12-19T04:54:24.910Z,21.48
2017-12-19T04:54:57.759Z,23.00
2017-12-19T04:55:31.180Z,21.15
2017-12-19T04:56:04.782Z,21.45
2017-12-19T04:56:37.373Z,22.40
2017-12-19T04:57:10.155Z,22.35
2017-12-19T04:57:42.857Z,21.80
2017-12-19T04:58:16.250Z,21.80
2017-12-19T04:58:49.737Z,20.70
2017-12-19T04:59:24.615Z,20.00
2017-12-19T04:59:58.073Z,20.58
2017-12-19T05:00:31.007Z,22.25
2017-12-19T05:01:06.599Z,21.35
2017-12-19T05:01:40.288Z,21.20
2017-12-19T05:02:13.202Z,21.02
2017-12-19T05:02:45.899Z,20.83
2017-12-19T05:03:18.530Z,22.08
2017-12-19T05:03:51.541Z,22.73
2017-12-19T05:04:27.074Z,21.25
2017-12-19T05:04:59.637Z,21.33
2017-12-19T05:05:32.283Z,20.73
2017-12-19T05:06:05.675Z,21.73
2017-12-19T05:06:39.307Z,21.17
2017-12-19T05:07:12.250Z,20.23
2017-12-19T05:07:44.833Z,20.65
2017-12-19T05:08:17.444Z,21.33
2017-12-19T05:08:50.044Z,20.50
2017-12-19T05:09:22.725Z,20.27
2017-12-19T05:09:55.501Z,20.33
2017-12-19T05:10:29.221Z,20.50
2017-12-19T05:11:01.950Z,21.40
2017-12-19T05:11:34.605Z,19.87
2017-12-19T05:12:07.227Z,20.50
2017-12-19T05:12:39.986Z,21.48
2017-12-19T05:13:13.083Z,20.77
2017-12-19T05:13:46.520Z,19.50
2017-12-19T05:14:19.030Z,20.33
2017-12-19T05:14:51.725Z,20.67
2017-12-19T05:15:24.505Z,20.23
2017-12-19T05:16:00.533Z,18.80
2017-12-19T05:16:33.939Z,20.67
2017-12-19T05:17:06.809Z,19.15
2017-12-19T05:17:39.684Z,20.17
2017-12-19T05:18:12.629Z,19.95
2017-12-19T05:18:46.069Z,20.85
2017-12-19T05:19:18.672Z,20.10
2017-12-19T05:19:52.079Z,21.02
2017-12-19T05:20:24.830Z,22.27
2017-12-19T05:20:58.645Z,21.27
2017-12-19T05:21:31.396Z,20.62
2017-12-19T05:22:07.005Z,20.90
2017-12-19T05:22:40.363Z,22.58
2017-12-19T05:23:12.924Z,21.08
2017-12-19T05:23:45.666Z,21.10
2017-12-19T05:24:18.447Z,21.05
2017-12-19T05:24:52.089Z,22.27
2017-12-19T05:25:25.466Z,20.05
2017-12-19T05:26:01.060Z,20.70
2017-12-19T05:26:33.692Z,20.48
2017-12-19T05:27:06.331Z,21.27
2017-12-19T05:27:39.059Z,20.83
2017-12-19T05:28:11.601Z,22.35
2017-12-19T05:28:44.477Z,22.40
2017-12-19T05:29:17.057Z,22.27
2017-12-19T05:29:49.666Z,20.30
2017-12-19T05:30:22.186Z,20.85
2017-12-19T05:30:54.839Z,20.35
2017-12-19T05:31:29.169Z,19.83
2017-12-19T05:32:02.083Z,20.05
2017-12-19T05:32:35.462Z,22.50
2017-12-19T05:33:08.044Z,21.65
2017-12-19T05:33:40.755Z,22.60
2017-12-19T05:34:13.352Z,19.83
2017-12-19T05:34:45.957Z,19.40
2017-12-19T05:35:18.605Z,21.10
2017-12-19T05:35:51.264Z,19.80
2017-12-19T05:36:24.636Z,21.00
2017-12-19T05:36:57.318Z,20.73
2017-12-19T05:38:09.594Z,19.77
2017-12-19T05:38:42.179Z,21.12
2017-12-19T05:39:15.512Z,22.15
2017-12-19T05:39:48.102Z,21.65
2017-12-19T05:40:20.729Z,20.60
2017-12-19T05:40:54.146Z,21.00
2017-12-19T05:41:26.773Z,20.80
2017-12-19T05:41:59.498Z,20.42
2017-12-19T05:42:32.150Z,21.27
2017-12-19T05:43:04.694Z,21.02
2017-12-19T05:43:37.391Z,21.15
2017-12-19T05:44:10.067Z,22.73
2017-12-19T05:44:42.816Z,21.77
2017-12-19T05:45:15.665Z,21.25
2017-12-19T05:45:48.597Z,20.15
2017-12-19T05:46:21.167Z,19.73
2017-12-19T05:46:54.916Z,21.50
2017-12-19T05:47:28.440Z,22.67
2017-12-19T05:48:01.058Z,22.35
2017-12-19T05:48:33.636Z,21.42
2017-12-19T05:49:07.060Z,22.17
2017-12-19T05:49:39.729Z,21.33
2017-12-19T05:50:12.547Z,21.10
2017-12-19T05:50:45.189Z,20.65
2017-12-19T05:51:17.888Z,21.70
2017-12-19T05:51:50.473Z,22.80
2017-12-19T05:52:23.096Z,21.10
2017-12-19T05:52:55.782Z,21.75
2017-12-19T05:53:28.449Z,20.85
2017-12-19T05:54:03.814Z,22.75
2017-12-19T05:54:36.477Z,22.17
2017-12-19T05:55:09.249Z,20.08
2017-12-19T05:55:41.970Z,19.70
2017-12-19T05:56:14.546Z,19.58
2017-12-19T05:56:47.282Z,20.37
2017-12-19T05:57:19.943Z,20.30
2017-12-19T05:57:52.624Z,21.58
2017-12-19T05:58:25.185Z,20.60
2017-12-19T05:58:57.756Z,21.48
2017-12-19T05:59:30.380Z,23.65
2017-12-19T06:00:03.287Z,21.80
2017-12-19T06:00:35.978Z,21.12
2017-12-19T06:01:08.610Z,19.83
2017-12-19T06:01:41.276Z,21.25
2017-12-19T06:02:15.000Z,21.15
2017-12-19T06:02:47.650Z,21.70
2017-12-19T06:03:20.327Z,21.40
2017-12-19T06:03:52.890Z,22.45
2017-12-19T06:04:25.963Z,22.62
2017-12-19T06:04:58.617Z,21.60
2017-12-19T06:05:31.213Z,20.10
2017-12-19T06:06:04.968Z,19.85
2017-12-19T06:06:37.759Z,20.95
2017-12-19T06:07:10.647Z,21.45
2017-12-19T06:07:43.351Z,21.83
2017-12-19T06:08:15.938Z,22.67
2017-12-19T06:08:48.597Z,19.92
2017-12-19T06:09:21.208Z,20.00
2017-12-19T06:09:53.805Z,20.25
2017-12-19T06:10:26.415Z,19.52
2017-12-19T06:10:59.151Z,19.67
2017-12-19T06:11:31.694Z,20.88
2017-12-19T06:12:04.994Z,21.98
2017-12-19T06:12:37.647Z,21.05
2017-12-19T06:13:10.358Z,22.77
2017-12-19T06:13:42.891Z,22.05
2017-12-19T06:14:15.470Z,20.52
2017-12-19T06:14:48.166Z,23.98
2017-12-19T06:15:20.983Z,20.20
2017-12-19T06:15:53.692Z,20.70
2017-12-19T06:16:26.354Z,21.42
2017-12-19T06:16:58.955Z,22.37
2017-12-19T06:17:31.563Z,22.08
2017-12-19T06:18:04.159Z,21.65
2017-12-19T06:18:36.860Z,22.65
2017-12-19T06:19:10.565Z,22.25
2017-12-19T06:19:43.145Z,19.70
2017-12-19T06:20:15.711Z,21.67
2017-12-19T06:20:48.281Z,22.58
2017-12-19T06:21:20.900Z,22.80
2017-12-19T06:21:53.663Z,22.52
2017-12-19T06:22:26.269Z,20.80
2017-12-19T06:22:59.150Z,21.40
2017-12-19T06:23:31.913Z,22.10
2017-12-19T06:24:05.668Z,22.05
2017-12-19T06:24:38.318Z,21.37
2017-12-19T06:25:11.014Z,23.10
2017-12-19T06:25:43.562Z,23.38
2017-12-19T06:26:16.976Z,21.17
2017-12-19T06:26:49.606Z,23.10
2017-12-19T06:27:22.210Z,22.23
2017-12-19T06:27:54.903Z,23.25
2017-12-19T06:28:27.748Z,23.25
2017-12-19T06:29:00.276Z,23.20
2017-12-19T06:29:32.866Z,22.48
2017-12-19T06:30:05.690Z,22.95
2017-12-19T06:30:38.250Z,23.92
2017-12-19T06:31:11.794Z,23.67
2017-12-19T06:31:44.526Z,21.05
2017-12-19T06:32:17.134Z,22.30
2017-12-19T06:32:49.953Z,21.30
2017-12-19T06:33:22.522Z,20.42
2017-12-19T06:33:55.248Z,21.65
2017-12-19T06:34:27.853Z,21.73
2017-12-19T06:35:01.134Z,20.55
2017-12-19T06:35:33.723Z,22.08
2017-12-19T06:36:06.420Z,22.25
2017-12-19T06:36:39.003Z,22.70
2017-12-19T06:37:12.539Z,21.25
2017-12-19T06:37:45.859Z,22.67
2017-12-19T06:38:18.787Z,23.12
2017-12-19T06:38:51.618Z,22.77
2017-12-19T06:39:24.179Z,21.20
2017-12-19T06:39:57.010Z,23.02
2017-12-19T06:40:30.082Z,22.05
2017-12-19T06:41:03.689Z,20.27
2017-12-19T06:41:37.356Z,21.02
2017-12-19T06:42:10.860Z,21.50
2017-12-19T06:42:43.456Z,21.80
2017-12-19T06:43:16.071Z,23.58
2017-12-19T06:43:49.682Z,21.87
2017-12-19T06:44:23.019Z,21.95
2017-12-19T06:44:56.009Z,22.23
2017-12-19T06:45:29.013Z,22.58
2017-12-19T06:46:01.769Z,21.90
2017-12-19T06:46:34.466Z,21.40
2017-12-19T06:47:07.229Z,23.95
2017-12-19T06:47:41.866Z,23.40
2017-12-19T06:48:14.525Z,23.15
2017-12-19T06:48:47.365Z,23.17
2017-12-19T06:49:20.103Z,22.55
2017-12-19T06:49:52.795Z,23.00
2017-12-19T06:50:25.477Z,23.62
2017-12-19T06:50:58.106Z,22.75
2017-12-19T06:51:30.831Z,23.83
2017-12-19T06:52:03.431Z,21.60
2017-12-19T06:52:36.762Z,23.60
2017-12-19T06:53:09.868Z,23.98
2017-12-19T06:53:42.624Z,22.05
2017-12-19T06:54:15.220Z,24.05
2017-12-19T06:54:48.687Z,23.27
2017-12-19T06:55:21.291Z,23.48
2017-12-19T06:55:54.646Z,23.62
2017-12-19T06:56:27.264Z,22.20
2017-12-19T06:57:02.830Z,23.85
2017-12-19T06:57:35.563Z,22.65
2017-12-19T06:58:08.291Z,22.40
2017-12-19T06:58:41.778Z,22.65
2017-12-19T06:59:15.132Z,21.98
2017-12-19T06:59:47.745Z,22.40
2017-12-19T07:00:20.559Z,24.67
2017-12-19T07:00:53.130Z,22.90
2017-12-19T07:01:25.756Z,22.75
2017-12-19T07:01:58.330Z,22.42
2017-12-19T07:02:30.984Z,23.83
2017-12-19T07:03:03.559Z,23.55
2017-12-19T07:03:36.149Z,22.85
2017-12-19T07:04:08.764Z,25.52
2017-12-19T07:04:42.324Z,23.25
2017-12-19T07:05:15.244Z,23.05